Time;durP1;ratioP1;P1;durP2;ratioP2;P2;SDS_P1;SDS_P2;PMS_P1;PMS_P2;Temp;Humidity;BMP_temperature;BMP_pressure;BME280_temperature;BME280_humidity;BME280_pressure;Samples;Min_cycle;Max_cycle;Signal;HPM_P1;HPM_P2
2023/01/26 00:01:20;;;;;;;9.32;5.57;;;16.70;1.00;;;;;;5034335;28;20041;-33
2023/01/26 00:03:48;;;;;;;9.88;5.82;;;16.70;1.00;;;;;;5034159;28;20540;-35
2023/01/26 00:06:17;;;;;;;9.02;5.45;;;16.70;1.00;;;;;;5034218;28;20041;-36
2023/01/26 00:08:49;;;;;;;9.73;5.65;;;16.70;1.00;;;;;;5034386;28;20098;-34
2023/01/26 00:11:19;;;;;;;9.10;5.13;;;16.60;1.00;;;;;;5034181;28;20065;-32
2023/01/26 00:13:52;;;;;;;7.32;5.05;;;16.60;1.00;;;;;;5033878;28;20068;-35
2023/01/26 00:16:19;;;;;;;;;;;16.60;1.00;;;;;;5034595;28;20050;-33
2023/01/26 00:18:46;;;;;;;10.48;5.85;;;16.60;1.00;;;;;;5034230;28;19921;-37
2023/01/26 00:21:15;;;;;;;10.13;5.90;;;16.50;1.00;;;;;;5034128;28;20048;-32
2023/01/26 00:23:42;;;;;;;11.63;5.82;;;16.50;1.00;;;;;;5033977;28;20497;-32
2023/01/26 00:26:12;;;;;;;11.20;6.38;;;16.50;1.00;;;;;;5033805;28;20484;-36
2023/01/26 00:28:40;;;;;;;9.77;5.68;;;16.50;1.00;;;;;;5033940;28;20064;-36
2023/01/26 00:31:12;;;;;;;9.68;5.88;;;16.50;1.00;;;;;;5015979;28;20052;-35
2023/01/26 00:33:39;;;;;;;10.13;5.20;;;16.50;1.00;;;;;;5015914;28;20456;-35
2023/01/26 00:36:09;;;;;;;9.43;5.07;;;16.50;1.00;;;;;;5015977;28;20311;-34
2023/01/26 00:38:36;;;;;;;9.48;5.82;;;16.40;1.00;;;;;;5033850;28;20120;-33
2023/01/26 00:41:03;;;;;;;9.85;5.95;;;16.40;1.00;;;;;;5033594;28;20120;-37
2023/01/26 00:43:30;;;;;;;9.07;5.53;;;16.40;1.00;;;;;;5032841;28;20062;-36
2023/01/26 00:45:57;;;;;;;8.73;5.60;;;16.40;1.00;;;;;;5033651;28;20386;-34
2023/01/26 00:48:24;;;;;;;9.40;5.97;;;16.40;1.00;;;;;;5015915;28;20084;-36
2023/01/26 00:50:51;;;;;;;11.60;6.68;;;16.30;1.00;;;;;;5015509;28;20135;-36
2023/01/26 00:53:18;;;;;;;9.07;5.15;;;16.30;1.00;;;;;;5033257;28;20117;-38
2023/01/26 00:55:45;;;;;;;9.63;5.35;;;16.30;1.00;;;;;;5033260;28;20576;-35
2023/01/26 00:58:11;;;;;;;9.45;5.95;;;16.30;1.00;;;;;;5015719;28;20493;-34
2023/01/26 01:00:38;;;;;;;8.75;5.38;;;16.20;1.00;;;;;;5015659;28;20065;-34
2023/01/26 01:03:06;;;;;;;14.30;7.00;;;16.20;1.00;;;;;;5015294;28;20095;-35
2023/01/26 01:05:34;;;;;;;11.40;6.43;;;16.20;1.00;;;;;;5033289;28;20065;-32
2023/01/26 01:08:01;;;;;;;9.85;6.07;;;16.20;1.00;;;;;;5033195;28;20049;-34
2023/01/26 01:10:28;;;;;;;10.05;6.03;;;16.10;1.00;;;;;;5033090;28;20121;-32
2023/01/26 01:12:55;;;;;;;11.88;6.03;;;16.20;1.00;;;;;;5015137;28;20067;-34
2023/01/26 01:15:23;;;;;;;8.25;4.90;;;16.10;1.00;;;;;;5032590;28;20088;-36
2023/01/26 01:17:50;;;;;;;11.00;6.47;;;16.10;1.00;;;;;;5033140;28;20072;-33
2023/01/26 01:20:17;;;;;;;9.45;6.20;;;16.10;1.00;;;;;;5015249;28;20074;-36
2023/01/26 01:22:45;;;;;;;10.13;5.72;;;16.10;1.00;;;;;;5029511;28;20044;-33
2023/01/26 01:25:12;;;;;;;11.98;6.05;;;16.10;1.00;;;;;;5006882;28;20069;-35
2023/01/26 01:27:39;;;;;;;10.70;5.95;;;16.10;1.00;;;;;;5032674;28;20120;-33
2023/01/26 01:30:07;;;;;;;9.32;5.82;;;16.10;1.00;;;;;;5032735;28;20049;-34
2023/01/26 01:32:40;;;;;;;12.13;6.95;;;16.10;1.00;;;;;;5032595;28;20037;-37
2023/01/26 01:35:07;;;;;;;;;;;16.10;1.00;;;;;;5032967;28;20377;-34
2023/01/26 01:37:35;;;;;;;10.70;6.07;;;16.00;1.00;;;;;;5031316;28;19925;-34
2023/01/26 01:40:02;;;;;;;11.50;6.63;;;16.00;1.00;;;;;;5032510;28;20099;-34
2023/01/26 01:42:29;;;;;;;9.20;5.65;;;15.90;1.00;;;;;;5009013;28;20045;-33
2023/01/26 01:45:31;;;;;;;9.13;5.82;;;15.90;1.00;;;;;;5032435;28;20042;-37
2023/01/26 01:48:03;;;;;;;10.30;5.63;;;15.90;1.00;;;;;;5015025;28;20049;-34
2023/01/26 01:50:35;;;;;;;10.93;6.25;;;15.90;1.00;;;;;;4998347;28;20075;-35
2023/01/26 01:53:03;;;;;;;10.77;6.10;;;15.90;1.00;;;;;;5014258;28;20107;-35
2023/01/26 01:55:30;;;;;;;9.40;5.55;;;15.90;1.00;;;;;;5013719;28;20508;-35
2023/01/26 01:58:00;;;;;;;9.00;5.30;;;15.90;1.00;;;;;;5032471;28;20052;-35
2023/01/26 02:00:27;;;;;;;10.07;5.65;;;15.90;1.00;;;;;;5032309;28;20038;-32
2023/01/26 02:03:13;;;;;;;9.15;5.78;;;15.80;1.00;;;;;;5014194;28;20073;-34
2023/01/26 02:05:58;;;;;;;9.07;5.35;;;15.80;1.00;;;;;;5014436;28;20448;-33
2023/01/26 02:08:32;;;;;;;9.20;5.50;;;15.80;1.00;;;;;;5032053;28;20514;-35
2023/01/26 02:11:01;;;;;;;;;;;15.80;1.00;;;;;;5032532;28;20091;-35
2023/01/26 02:13:30;;;;;;;9.20;4.68;;;15.70;1.00;;;;;;5014175;28;20261;-33
2023/01/26 02:15:58;;;;;;;8.15;5.22;;;15.70;1.00;;;;;;5014220;28;20041;-34
2023/01/26 02:18:26;;;;;;;9.50;4.85;;;15.70;1.00;;;;;;5014328;28;20053;-33
2023/01/26 02:21:00;;;;;;;5.88;4.15;;;15.70;1.00;;;;;;5031904;28;20045;-39
2023/01/26 02:23:45;;;;;;;;;;;15.70;1.00;;;;;;5014341;28;20084;-33
2023/01/26 02:26:14;;;;;;;8.45;4.50;;;15.60;1.00;;;;;;5014152;28;20312;-35
2023/01/26 02:28:42;;;;;;;6.97;4.05;;;15.60;1.00;;;;;;5014147;28;20501;-35
2023/01/26 02:31:10;;;;;;;9.48;5.40;;;15.60;1.00;;;;;;5013928;28;20099;-37
2023/01/26 02:33:38;;;;;;;8.05;4.97;;;15.60;1.00;;;;;;5013920;28;20053;-36
2023/01/26 02:36:06;;;;;;;8.18;4.93;;;15.60;1.00;;;;;;5014001;28;20508;-36
2023/01/26 02:38:45;;;;;;;7.70;3.90;;;15.60;1.00;;;;;;5014066;28;20449;-36
2023/01/26 02:42:37;;;;;;;9.45;5.28;;;15.60;1.00;;;;;;5014000;28;20049;-32
2023/01/26 02:44:05;;;;;;;6.47;3.45;;;15.50;1.00;;;;;;5031417;28;20053;-32
2023/01/26 02:46:32;;;;;;;8.57;5.15;;;15.50;1.00;;;;;;5013995;28;20095;-35
2023/01/26 02:51:45;;;;;;;9.63;4.45;;;15.50;1.00;;;;;;5013834;28;20046;-36
2023/01/26 02:55:21;;;;;;;8.57;5.13;;;15.50;1.00;;;;;;5013530;28;20045;-34
2023/01/26 02:57:00;;;;;;;7.80;4.68;;;15.50;1.00;;;;;;5013756;28;20046;-33
2023/01/26 02:59:27;;;;;;;5.50;3.65;;;15.40;1.00;;;;;;5014012;28;20124;-36
2023/01/26 03:01:55;;;;;;;9.15;4.68;;;15.40;1.00;;;;;;5013778;28;20195;-36
2023/01/26 03:04:23;;;;;;;8.02;4.85;;;15.40;1.00;;;;;;5013547;28;20088;-38
2023/01/26 03:06:51;;;;;;;6.00;3.90;;;15.40;1.00;;;;;;5015517;28;20107;-35
2023/01/26 03:09:18;;;;;;;7.20;4.35;;;15.30;1.00;;;;;;5017730;28;20641;-36
2023/01/26 03:11:46;;;;;;;11.25;4.60;;;15.30;1.00;;;;;;5017602;28;20464;-34
2023/01/26 03:14:15;;;;;;;7.57;4.28;;;15.30;1.00;;;;;;5017313;28;20060;-36
2023/01/26 03:16:42;;;;;;;8.00;4.05;;;15.30;1.00;;;;;;5017638;28;20069;-37
2023/01/26 03:27:37;;;;;;;9.60;4.30;;;15.20;1.00;;;;;;5017248;28;20073;-33
2023/01/26 03:30:05;;;;;;;7.75;4.22;;;15.20;1.00;;;;;;5017407;28;20056;-35
2023/01/26 03:32:31;;;;;;;8.13;3.75;;;15.20;1.00;;;;;;5017227;28;20049;-34
2023/01/26 03:34:59;;;;;;;7.85;3.60;;;15.20;1.00;;;;;;5017067;28;20148;-37
2023/01/26 03:37:26;;;;;;;5.50;3.47;;;15.20;1.00;;;;;;5034846;28;20060;-33
2023/01/26 03:56:40;;;;;;;7.30;3.58;;;15.10;1.00;;;;;;5016725;28;20041;-36
2023/01/26 03:59:14;;;;;;;6.80;2.90;;;15.10;1.00;;;;;;5034691;28;20040;-34
2023/01/26 04:10:05;;;;;;;6.20;3.17;;;15.00;1.00;;;;;;5016539;28;20501;-32
2023/01/26 04:12:32;;;;;;;7.90;3.67;;;15.00;1.00;;;;;;5016405;28;20052;-35
2023/01/26 04:23:38;;;;;;;6.82;2.72;;;15.00;1.00;;;;;;5016155;28;20555;-32
2023/01/26 04:26:06;;;;;;;6.60;3.10;;;14.90;1.00;;;;;;5016198;28;20046;-35
2023/01/26 04:28:34;;;;;;;5.82;2.83;;;14.90;1.00;;;;;;5034145;28;20505;-36
2023/01/26 04:31:03;;;;;;;9.13;3.63;;;15.00;1.00;;;;;;5016245;28;20046;-34
2023/01/26 04:33:33;;;;;;;5.90;3.08;;;14.90;1.00;;;;;;5016047;28;20038;-34
2023/01/26 04:36:05;;;;;;;5.82;2.88;;;14.90;1.00;;;;;;5015945;28;20121;-37
2023/01/26 04:38:35;;;;;;;8.40;3.30;;;14.90;1.00;;;;;;5016246;28;20132;-35
2023/01/26 04:41:03;;;;;;;10.40;3.45;;;14.90;1.00;;;;;;5015943;28;20041;-36
2023/01/26 04:43:35;;;;;;;6.68;2.70;;;14.90;1.00;;;;;;5015696;28;20519;-34
2023/01/26 04:46:06;;;;;;;5.85;2.90;;;14.90;1.00;;;;;;5015865;28;20041;-38
2023/01/26 04:48:34;;;;;;;6.20;2.65;;;14.90;1.00;;;;;;5016167;28;20433;-34
2023/01/26 04:51:14;;;;;;;5.90;2.97;;;14.90;1.00;;;;;;5015547;28;20547;-33
2023/01/26 04:53:42;;;;;;;5.22;2.80;;;14.80;1.00;;;;;;5015576;28;20037;-36
2023/01/26 04:56:21;;;;;;;6.85;3.03;;;14.80;1.00;;;;;;5033426;28;20494;-37
2023/01/26 04:58:50;;;;;;;7.38;3.13;;;14.80;1.00;;;;;;5015753;28;20041;-39
2023/01/26 05:01:17;;;;;;;8.27;2.75;;;14.80;1.00;;;;;;5015530;28;20132;-34
2023/01/26 05:03:45;;;;;;;9.90;3.20;;;14.80;1.00;;;;;;5015259;28;20435;-35
2023/01/26 05:06:11;;;;;;;6.95;2.90;;;14.80;1.00;;;;;;5015338;28;20413;-37
2023/01/26 05:08:40;;;;;;;12.40;3.10;;;14.80;1.00;;;;;;5013668;28;20065;-37
2023/01/26 05:11:07;;;;;;;6.63;2.83;;;14.80;1.00;;;;;;5014454;28;20069;-35
2023/01/26 05:13:48;;;;;;;7.05;2.60;;;14.80;1.00;;;;;;5032788;28;20541;-36
2023/01/26 05:16:21;;;;;;;7.70;3.17;;;14.70;1.00;;;;;;5015313;28;20475;-40
2023/01/26 05:19:17;;;;;;;6.30;2.97;;;14.70;1.00;;;;;;4979037;28;20043;-36
2023/01/26 05:22:16;;;;;;;9.70;2.70;;;14.70;1.00;;;;;;4988570;28;20049;-36
2023/01/26 05:25:03;;;;;;;6.72;2.45;;;14.70;1.00;;;;;;4998592;28;20096;-38
2023/01/26 05:27:38;;;;;;;6.40;2.60;;;14.70;1.00;;;;;;5032720;28;20573;-39
2023/01/26 05:30:07;;;;;;;11.45;3.00;;;14.70;1.00;;;;;;5023275;28;20489;-35
2023/01/26 05:32:37;;;;;;;13.85;3.40;;;14.70;1.00;;;;;;5031211;28;20048;-37
2023/01/26 05:35:05;;;;;;;9.25;2.90;;;14.70;1.00;;;;;;5032877;28;20224;-36
2023/01/26 05:37:33;;;;;;;10.10;2.53;;;14.70;1.00;;;;;;5031317;28;20045;-34
2023/01/26 05:39:59;;;;;;;13.10;2.20;;;14.60;1.00;;;;;;5031431;28;20075;-36
2023/01/26 05:42:27;;;;;;;8.90;2.42;;;14.60;1.00;;;;;;5031223;28;20084;-34
2023/01/26 05:44:57;;;;;;;13.48;3.33;;;14.60;1.00;;;;;;5032445;28;20077;-35
2023/01/26 05:47:23;;;;;;;10.20;2.72;;;14.60;1.00;;;;;;5031321;28;20523;-37
2023/01/26 05:49:51;;;;;;;9.35;3.00;;;14.60;1.00;;;;;;5031234;28;20049;-34
2023/01/26 05:52:23;;;;;;;13.65;3.47;;;14.70;1.00;;;;;;5030944;28;20532;-36
2023/01/26 05:54:51;;;;;;;8.85;2.53;;;14.60;1.00;;;;;;5020272;28;20099;-36
2023/01/26 05:57:18;;;;;;;10.40;2.80;;;14.60;1.00;;;;;;5026191;28;20579;-36
2023/01/26 05:59:53;;;;;;;7.45;2.03;;;14.60;1.00;;;;;;5022301;28;20053;-36
2023/01/26 06:02:20;;;;;;;5.65;2.17;;;14.60;1.00;;;;;;5030955;28;20095;-38
2023/01/26 06:04:48;;;;;;;9.38;2.53;;;14.60;1.00;;;;;;5014553;28;20514;-38
2023/01/26 06:07:15;;;;;;;7.30;2.55;;;14.60;1.00;;;;;;5032269;28;20120;-33
2023/01/26 06:10:05;;;;;;;9.32;2.63;;;14.60;1.00;;;;;;5030814;28;20057;-37
2023/01/26 06:12:53;;;;;;;12.85;3.17;;;14.50;1.00;;;;;;5031362;28;20065;-32
2023/01/26 06:15:36;;;;;;;7.20;2.47;;;14.50;1.00;;;;;;5030335;28;20041;-39
2023/01/26 06:18:03;;;;;;;8.07;2.92;;;14.50;1.00;;;;;;5032053;28;20328;-36
2023/01/26 06:20:30;;;;;;;8.68;2.47;;;14.50;1.00;;;;;;5030619;28;20091;-34
2023/01/26 06:23:00;;;;;;;6.03;2.40;;;14.50;1.00;;;;;;5014490;28;20049;-34
2023/01/26 06:25:28;;;;;;;8.80;2.13;;;14.50;1.00;;;;;;5030620;28;20099;-36
2023/01/26 06:27:58;;;;;;;6.28;2.75;;;14.50;1.00;;;;;;5030601;28;20144;-34
2023/01/26 06:30:27;;;;;;;11.88;2.42;;;14.50;1.00;;;;;;5031956;28;20483;-36
2023/01/26 06:32:59;;;;;;;7.38;2.50;;;14.50;1.00;;;;;;5030027;28;20064;-38
2023/01/26 06:35:27;;;;;;;11.30;2.10;;;14.40;1.00;;;;;;5030437;28;20076;-35
2023/01/26 06:37:57;;;;;;;8.68;2.40;;;14.50;1.00;;;;;;5030610;28;20132;-37
2023/01/26 06:40:24;;;;;;;6.63;2.25;;;14.50;1.00;;;;;;5031341;28;20493;-35
2023/01/26 06:42:50;;;;;;;7.70;1.85;;;14.40;1.00;;;;;;5030418;28;20164;-34
2023/01/26 06:45:19;;;;;;;10.27;2.33;;;14.40;1.00;;;;;;5030355;28;20050;-33
2023/01/26 06:47:48;;;;;;;7.38;2.35;;;14.40;1.00;;;;;;5030416;28;20524;-33
2023/01/26 06:50:21;;;;;;;9.32;2.13;;;14.40;1.00;;;;;;5030342;28;20057;-34
2023/01/26 06:52:55;;;;;;;10.73;2.05;;;14.40;1.00;;;;;;5030234;28;20057;-34
2023/01/26 06:55:54;;;;;;;5.97;1.60;;;14.40;1.00;;;;;;4998140;28;20060;-36
2023/01/26 06:58:29;;;;;;;8.93;1.67;;;14.40;1.00;;;;;;5030478;28;20045;-33
2023/01/26 07:01:24;;;;;;;7.15;2.10;;;14.40;1.00;;;;;;5030262;28;20049;-34
2023/01/26 07:03:52;;;;;;;6.22;1.80;;;14.30;1.00;;;;;;5031271;28;20045;-35
2023/01/26 07:06:19;;;;;;;6.43;2.05;;;14.30;1.00;;;;;;5031362;28;20033;-35
2023/01/26 07:08:46;;;;;;;11.77;2.47;;;14.40;1.00;;;;;;5031590;28;20041;-33
2023/01/26 07:11:14;;;;;;;8.48;2.15;;;14.30;1.00;;;;;;5030280;28;20463;-36
2023/01/26 07:13:41;;;;;;;9.95;2.38;;;14.30;1.00;;;;;;5031122;28;20132;-35
2023/01/26 07:16:11;;;;;;;6.95;1.67;;;14.30;1.00;;;;;;5031304;28;20037;-35
2023/01/26 07:18:38;;;;;;;7.30;1.90;;;14.30;1.00;;;;;;5031285;28;20052;-37
2023/01/26 07:21:07;;;;;;;7.63;2.13;;;14.30;1.00;;;;;;5031437;28;20446;-38
2023/01/26 07:23:33;;;;;;;6.78;1.83;;;14.30;1.00;;;;;;5031205;28;20041;-36
2023/01/26 07:26:01;;;;;;;7.15;1.65;;;14.30;1.00;;;;;;5031206;28;20132;-36
2023/01/26 07:28:29;;;;;;;3.65;1.42;;;14.30;1.00;;;;;;5031247;28;20602;-37
2023/01/26 07:31:00;;;;;;;4.88;1.08;;;14.30;1.00;;;;;;5029490;28;20041;-36
2023/01/26 07:33:30;;;;;;;9.05;2.65;;;14.30;1.00;;;;;;5026266;28;20485;-33
2023/01/26 07:35:58;;;;;;;7.63;2.22;;;14.30;1.00;;;;;;5026009;28;20069;-32
2023/01/26 07:38:27;;;;;;;7.15;1.60;;;14.20;1.00;;;;;;5027244;28;20045;-38
2023/01/26 07:40:54;;;;;;;9.65;1.63;;;14.20;1.00;;;;;;5031286;28;20069;-35
2023/01/26 07:43:22;;;;;;;7.00;1.77;;;14.20;1.00;;;;;;5030816;28;20095;-35
2023/01/26 07:45:53;;;;;;;6.72;1.90;;;14.20;1.00;;;;;;5030957;28;20041;-36
2023/01/26 07:48:22;;;;;;;3.08;1.63;;;14.20;1.00;;;;;;5031033;28;20053;-38
2023/01/26 07:50:50;;;;;;;7.72;1.60;;;14.20;1.00;;;;;;5031192;28;20112;-37
2023/01/26 07:53:21;;;;;;;5.90;1.90;;;14.20;1.00;;;;;;5031640;28;20099;-35
2023/01/26 07:55:48;;;;;;;6.78;1.88;;;14.20;1.00;;;;;;5034632;28;20080;-33
2023/01/26 07:58:17;;;;;;;5.88;2.10;;;14.20;1.00;;;;;;5034349;28;20567;-38
2023/01/26 08:00:47;;;;;;;6.97;2.00;;;14.20;1.00;;;;;;5034396;28;20042;-34
2023/01/26 08:03:14;;;;;;;6.63;1.17;;;14.20;1.00;;;;;;5034132;28;20048;-33
2023/01/26 08:05:42;;;;;;;5.47;1.33;;;14.20;1.00;;;;;;5034462;28;20124;-32
2023/01/26 08:08:09;;;;;;;6.28;1.92;;;14.20;1.00;;;;;;5033011;28;20144;-39
2023/01/26 08:10:36;;;;;;;2.72;1.30;;;14.20;1.00;;;;;;5034475;28;20037;-33
2023/01/26 08:13:03;;;;;;;4.85;1.85;;;14.20;1.00;;;;;;5033795;28;20069;-35
2023/01/26 08:15:30;;;;;;;4.10;1.58;;;14.10;1.00;;;;;;5034430;28;20504;-34
2023/01/26 08:17:56;;;;;;;5.88;1.35;;;14.10;1.00;;;;;;5034026;28;20034;-38
2023/01/26 08:20:23;;;;;;;4.22;1.70;;;14.20;1.00;;;;;;5033948;28;20493;-38
2023/01/26 08:22:50;;;;;;;6.20;1.58;;;14.10;1.00;;;;;;5033953;28;20045;-35
2023/01/26 08:25:17;;;;;;;4.95;1.25;;;14.10;1.00;;;;;;5032784;28;20601;-38
2023/01/26 08:27:43;;;;;;;8.75;1.80;;;14.10;1.00;;;;;;5033827;28;20053;-36
2023/01/26 08:30:11;;;;;;;6.05;1.08;;;14.10;1.00;;;;;;5032913;28;20398;-35
2023/01/26 08:32:39;;;;;;;4.18;1.15;;;14.10;1.00;;;;;;5033610;28;20045;-38
2023/01/26 08:35:06;;;;;;;7.15;2.20;;;14.10;1.00;;;;;;5033890;28;20118;-36
2023/01/26 08:37:35;;;;;;;7.85;2.17;;;14.10;1.00;;;;;;5033729;28;20045;-37
2023/01/26 08:40:01;;;;;;;7.72;1.40;;;14.10;1.00;;;;;;5033708;28;20045;-36
2023/01/26 08:42:28;;;;;;;5.82;1.40;;;14.10;1.00;;;;;;5033501;28;20056;-38
2023/01/26 08:44:55;;;;;;;6.20;1.67;;;14.10;1.00;;;;;;5033615;28;20053;-39
2023/01/26 08:47:22;;;;;;;4.07;1.33;;;14.10;1.00;;;;;;5033662;28;20416;-35
2023/01/26 08:49:48;;;;;;;9.13;2.00;;;14.10;1.00;;;;;;5032337;28;20049;-34
2023/01/26 08:52:15;;;;;;;9.65;1.90;;;14.10;1.00;;;;;;5033314;28;20547;-36
2023/01/26 08:54:42;;;;;;;5.40;1.30;;;14.10;1.00;;;;;;5033390;28;20439;-39
2023/01/26 08:57:09;;;;;;;6.68;1.58;;;14.10;1.00;;;;;;5033651;28;20111;-36
2023/01/26 08:59:35;;;;;;;5.40;1.35;;;14.10;1.00;;;;;;5033324;28;20103;-41
2023/01/26 09:02:02;;;;;;;5.05;1.45;;;14.10;1.00;;;;;;5032143;28;20029;-40
2023/01/26 09:04:29;;;;;;;6.40;1.63;;;14.10;1.00;;;;;;5032586;28;20073;-37
2023/01/26 09:06:56;;;;;;;7.93;2.42;;;14.10;1.00;;;;;;5033015;28;20038;-37
2023/01/26 09:09:23;;;;;;;4.65;1.60;;;14.10;1.00;;;;;;5044442;22;20504;-39
2023/01/26 09:11:49;;;;;;;8.88;1.98;;;14.10;1.00;;;;;;5033032;28;20072;-39
2023/01/26 09:14:20;;;;;;;10.25;1.65;;;14.10;1.00;;;;;;5032304;28;20042;-38
2023/01/26 09:16:50;;;;;;;4.80;1.27;;;14.10;1.00;;;;;;5033383;28;20053;-38
2023/01/26 09:19:18;;;;;;;8.40;1.67;;;14.10;1.00;;;;;;5032832;28;20049;-38
2023/01/26 09:21:45;;;;;;;4.15;1.35;;;14.10;1.00;;;;;;5033104;28;20041;-39
2023/01/26 09:24:11;;;;;;;2.80;1.38;;;14.10;1.00;;;;;;5032646;28;20500;-38
2023/01/26 09:26:38;;;;;;;8.98;2.03;;;14.10;1.00;;;;;;5032884;28;20046;-39
2023/01/26 09:29:05;;;;;;;8.38;1.67;;;14.10;1.00;;;;;;5032712;28;20049;-38
2023/01/26 09:31:32;;;;;;;5.38;1.75;;;14.10;1.00;;;;;;5032774;28;20045;-39
2023/01/26 09:33:59;;;;;;;5.63;1.60;;;14.10;1.00;;;;;;5032403;28;20048;-39
2023/01/26 09:36:25;;;;;;;8.05;1.67;;;14.10;1.00;;;;;;5032741;28;20515;-38
2023/01/26 09:38:52;;;;;;;5.60;1.50;;;14.10;1.00;;;;;;5032712;28;20103;-38
2023/01/26 09:41:49;;;;;;;5.63;1.98;;;14.10;1.00;;;;;;5032628;28;20045;-39
2023/01/26 09:44:22;;;;;;;6.28;1.58;;;14.10;1.00;;;;;;5031938;28;20148;-38
2023/01/26 09:47:12;;;;;;;8.35;1.85;;;14.10;1.00;;;;;;5032476;28;20057;-38
2023/01/26 09:50:09;;;;;;;6.88;1.88;;;14.10;1.00;;;;;;5032468;28;20074;-38
2023/01/26 09:53:06;;;;;;;9.43;1.45;;;14.00;1.00;;;;;;5031917;28;20038;-38
2023/01/26 09:55:41;;;;;;;7.10;1.88;;;14.10;1.00;;;;;;5032411;28;20037;-38
2023/01/26 09:58:39;;;;;;;5.47;1.42;;;14.00;1.00;;;;;;5014410;28;20451;-38
2023/01/26 10:01:17;;;;;;;5.03;1.52;;;14.00;1.00;;;;;;5027284;28;20459;-39
2023/01/26 10:03:56;;;;;;;4.72;1.55;;;14.10;1.00;;;;;;5031965;28;20120;-38
2023/01/26 10:06:30;;;;;;;5.15;1.25;;;14.00;1.00;;;;;;5032276;28;20045;-38
2023/01/26 10:09:19;;;;;;;5.55;1.50;;;14.00;1.00;;;;;;5031928;28;20045;-38
2023/01/26 10:11:50;;;;;;;5.22;1.63;;;14.00;1.00;;;;;;5032143;28;20041;-38
2023/01/26 10:14:19;;;;;;;4.75;1.30;;;14.10;1.00;;;;;;5031927;28;20469;-38
2023/01/26 10:16:49;;;;;;;6.22;1.15;;;14.10;1.00;;;;;;5031350;28;20037;-38
2023/01/26 10:19:27;;;;;;;5.55;1.02;;;14.00;1.00;;;;;;5031896;28;20466;-38
2023/01/26 10:21:58;;;;;;;7.25;1.42;;;14.10;1.00;;;;;;4998017;28;20059;-38
2023/01/26 10:24:25;;;;;;;4.72;1.77;;;14.10;1.00;;;;;;5031766;28;20103;-38
2023/01/26 10:26:56;;;;;;;6.30;1.70;;;14.10;1.00;;;;;;5032031;28;20449;-38
2023/01/26 10:29:23;;;;;;;4.47;1.35;;;14.10;1.00;;;;;;5031755;28;20049;-38
2023/01/26 10:31:50;;;;;;;6.25;1.73;;;14.10;1.00;;;;;;5031955;28;20085;-38
2023/01/26 10:34:24;;;;;;;5.60;1.70;;;14.10;1.00;;;;;;5031398;28;20045;-38
2023/01/26 10:37:00;;;;;;;4.43;1.52;;;14.10;1.00;;;;;;5031832;28;20147;-38
2023/01/26 10:39:27;;;;;;;7.07;1.15;;;14.10;1.00;;;;;;5031767;28;20508;-38
2023/01/26 10:42:02;;;;;;;4.88;1.35;;;14.10;1.00;;;;;;5031726;28;20038;-38
2023/01/26 10:44:36;;;;;;;8.80;1.90;;;14.10;1.00;;;;;;5031641;28;20049;-38
2023/01/26 10:47:12;;;;;;;4.90;1.65;;;14.10;1.00;;;;;;5031552;28;20044;-38
2023/01/26 10:49:39;;;;;;;9.68;1.60;;;14.10;1.00;;;;;;5031846;28;20049;-39
2023/01/26 10:52:16;;;;;;;5.82;1.50;;;14.10;1.00;;;;;;5031698;28;20077;-38
2023/01/26 10:54:45;;;;;;;5.95;1.38;;;14.10;1.00;;;;;;5031409;28;20452;-38
2023/01/26 10:57:17;;;;;;;4.05;1.33;;;14.10;1.00;;;;;;5031280;28;20125;-38
2023/01/26 10:59:50;;;;;;;6.38;1.50;;;14.10;1.00;;;;;;5031644;28;20037;-38
2023/01/26 11:02:23;;;;;;;3.83;1.40;;;14.10;1.00;;;;;;5031778;28;20397;-38
2023/01/26 11:05:08;;;;;;;5.10;1.88;;;14.10;1.00;;;;;;5031407;28;20111;-38
2023/01/26 11:07:40;;;;;;;6.13;1.95;;;14.10;1.00;;;;;;5031351;28;20042;-39
2023/01/26 11:10:32;;;;;;;5.78;1.88;;;14.10;1.00;;;;;;5031407;28;20137;-38
2023/01/26 11:13:15;;;;;;;3.42;1.75;;;14.10;1.00;;;;;;5024056;28;20563;-39
2023/01/26 11:16:08;;;;;;;11.05;2.88;;;14.10;1.00;;;;;;5031423;28;20477;-39
2023/01/26 11:19:02;;;;;;;5.60;1.83;;;14.10;1.00;;;;;;5031381;28;20041;-38
2023/01/26 11:21:32;;;;;;;4.80;1.50;;;14.10;1.00;;;;;;5031458;28;20056;-38
2023/01/26 11:24:36;;;;;;;6.70;2.03;;;14.10;1.00;;;;;;5031159;28;20050;-39
2023/01/26 11:27:08;;;;;;;;;;;14.10;1.00;;;;;;5032620;28;20049;-38
2023/01/26 11:30:00;;;;;;;5.05;1.85;;;14.10;1.00;;;;;;5035038;28;19921;-38
2023/01/26 11:32:39;;;;;;;6.15;1.92;;;14.00;1.00;;;;;;5034877;28;20048;-40
2023/01/26 11:35:30;;;;;;;3.00;1.33;;;14.10;1.00;;;;;;5035096;28;20041;-40
2023/01/26 11:38:27;;;;;;;6.60;1.05;;;14.00;1.00;;;;;;5034989;28;20108;-40
2023/01/26 11:41:05;;;;;;;6.30;1.58;;;14.00;1.00;;;;;;5034788;28;20041;-40
2023/01/26 11:43:57;;;;;;;5.55;1.50;;;14.00;1.00;;;;;;5034426;28;20057;-40
2023/01/26 11:46:53;;;;;;;8.45;2.08;;;14.00;1.00;;;;;;5034819;28;20435;-39
2023/01/26 11:49:36;;;;;;;6.97;1.38;;;14.10;1.00;;;;;;5016744;28;20408;-40
2023/01/26 11:52:21;;;;;;;4.85;1.20;;;14.10;1.00;;;;;;5034564;28;20045;-40
2023/01/26 11:55:09;;;;;;;7.45;1.42;;;14.00;1.00;;;;;;5034312;28;20130;-40
2023/01/26 11:58:05;;;;;;;4.40;0.93;;;14.10;1.00;;;;;;5034309;28;20041;-40
2023/01/26 12:00:54;;;;;;;6.35;1.70;;;14.10;1.00;;;;;;5034515;28;20118;-40
2023/01/26 12:03:45;;;;;;;5.55;1.73;;;14.10;1.00;;;;;;5034268;28;20534;-40
2023/01/26 12:06:25;;;;;;;5.85;1.60;;;14.00;1.00;;;;;;5034753;28;20042;-40
2023/01/26 12:09:02;;;;;;;8.60;1.58;;;14.10;1.00;;;;;;5034286;28;20582;-40
2023/01/26 12:11:34;;;;;;;3.78;1.05;;;14.00;1.00;;;;;;5034481;28;20080;-40
2023/01/26 12:14:14;;;;;;;2.75;0.68;;;14.10;1.00;;;;;;5016436;28;20456;-40
2023/01/26 12:16:53;;;;;;;5.35;1.13;;;14.10;1.00;;;;;;5034298;28;20405;-40
2023/01/26 12:19:49;;;;;;;14.93;1.90;;;14.10;1.00;;;;;;5034361;28;20038;-40
2023/01/26 12:22:23;;;;;;;4.90;1.30;;;14.10;1.00;;;;;;5034035;28;20065;-40
2023/01/26 12:25:02;;;;;;;3.70;1.08;;;14.10;1.00;;;;;;5034013;28;20049;-40
2023/01/26 12:27:57;;;;;;;2.90;0.98;;;14.00;1.00;;;;;;5034115;28;20577;-40
2023/01/26 12:30:46;;;;;;;5.95;1.23;;;14.10;1.00;;;;;;5033913;28;20049;-40
2023/01/26 12:33:13;;;;;;;3.67;1.70;;;14.10;1.00;;;;;;5033392;28;20037;-40
2023/01/26 12:36:08;;;;;;;4.85;1.35;;;14.10;1.00;;;;;;5033980;28;20045;-40
2023/01/26 12:39:19;;;;;;;5.80;1.17;;;14.10;1.00;;;;;;5032914;28;20046;-40
2023/01/26 12:42:13;;;;;;;4.95;1.05;;;14.10;1.00;;;;;;4972698;28;20577;-40
2023/01/26 12:44:52;;;;;;;6.53;1.55;;;14.10;1.00;;;;;;4972662;28;20047;-40
2023/01/26 12:47:35;;;;;;;3.20;1.48;;;14.10;1.00;;;;;;5020751;28;20073;-40
2023/01/26 12:50:15;;;;;;;4.72;1.10;;;14.10;1.00;;;;;;5033640;28;20081;-40
2023/01/26 12:53:03;;;;;;;6.20;1.40;;;14.10;1.00;;;;;;5033225;28;20136;-40
2023/01/26 12:55:39;;;;;;;4.35;1.60;;;14.10;1.00;;;;;;5033708;28;20481;-40
2023/01/26 12:58:18;;;;;;;8.00;1.33;;;14.10;1.00;;;;;;5033414;28;20095;-40
2023/01/26 13:01:05;;;;;;;6.18;1.45;;;14.10;1.00;;;;;;5033441;28;20041;-40
2023/01/26 13:03:37;;;;;;;4.60;1.42;;;14.10;1.00;;;;;;5032153;28;20061;-40
2023/01/26 13:06:12;;;;;;;2.10;0.93;;;14.10;1.00;;;;;;5033369;28;20045;-40
2023/01/26 13:08:59;;;;;;;4.10;1.20;;;14.10;1.00;;;;;;5033164;28;20635;-40
2023/01/26 13:11:45;;;;;;;3.92;0.95;;;14.10;1.00;;;;;;5033326;28;20412;-40
2023/01/26 13:14:32;;;;;;;5.43;1.13;;;14.10;1.00;;;;;;5032908;28;20042;-40
2023/01/26 13:17:14;;;;;;;5.35;1.27;;;14.10;1.00;;;;;;5033175;28;20045;-40
2023/01/26 13:19:41;;;;;;;8.73;2.08;;;14.10;1.00;;;;;;5033076;28;20132;-40
2023/01/26 13:22:37;;;;;;;2.17;0.60;;;14.10;1.00;;;;;;5033120;28;20048;-40
2023/01/26 13:25:26;;;;;;;5.35;1.05;;;14.10;1.00;;;;;;5032870;28;20128;-40
2023/01/26 13:27:56;;;;;;;5.90;0.85;;;14.10;1.00;;;;;;5032816;28;20053;-40
2023/01/26 13:30:26;;;;;;;3.85;1.30;;;14.10;1.00;;;;;;5033017;28;20037;-40
2023/01/26 13:32:58;;;;;;;3.38;1.38;;;14.10;1.00;;;;;;5032469;28;20077;-40
2023/01/26 13:35:25;;;;;;;2.83;0.80;;;14.10;1.00;;;;;;5032721;28;20049;-40
2023/01/26 13:37:59;;;;;;;7.00;1.50;;;14.10;1.00;;;;;;5032655;28;20072;-40
2023/01/26 13:40:33;;;;;;;3.35;0.82;;;14.10;1.00;;;;;;5032679;28;20128;-40
2023/01/26 13:43:00;;;;;;;4.40;1.00;;;14.10;1.00;;;;;;5032254;28;20091;-41
2023/01/26 13:45:52;;;;;;;6.25;1.33;;;14.10;1.00;;;;;;5032711;28;20045;-40
2023/01/26 13:48:38;;;;;;;2.70;1.25;;;14.10;1.00;;;;;;5032581;28;20413;-40
2023/01/26 13:51:08;;;;;;;3.45;0.85;;;14.10;1.00;;;;;;5032472;28;20049;-41
2023/01/26 13:54:05;;;;;;;3.63;1.02;;;14.10;1.00;;;;;;5032004;28;20514;-40
2023/01/26 13:56:34;;;;;;;2.80;0.70;;;14.10;1.00;;;;;;5032526;28;20049;-40
2023/01/26 13:59:11;;;;;;;3.35;0.95;;;14.10;1.00;;;;;;5032274;28;20045;-40
2023/01/26 14:01:46;;;;;;;2.85;0.88;;;14.10;1.00;;;;;;5032280;28;20049;-40
2023/01/26 14:04:28;;;;;;;4.10;0.82;;;14.10;1.00;;;;;;5031992;28;20653;-40
2023/01/26 14:07:08;;;;;;;5.88;0.88;;;14.00;1.00;;;;;;5032054;28;20049;-40
2023/01/26 14:09:46;;;;;;;4.55;1.30;;;14.10;1.00;;;;;;5032142;28;20451;-40
2023/01/26 14:12:35;;;;;;;4.82;0.85;;;14.00;1.00;;;;;;5032165;28;20088;-40
2023/01/26 14:15:05;;;;;;;3.17;0.85;;;14.10;1.00;;;;;;5031971;28;20045;-40